Decoded Metar for KHKY (HICKORY in NC, USA) (IATA:HKY) | Meteo·Mobile Aviation Weather
aviador You're here:

KHKY Decoded Metar

HICKORY in NC, USA
Report Time2018-09-21 09:53:00
UTC Time2018-09-21 10:26:50
Flight Rules vfr VFR
Wind190° at 06 kt
W.Decomp.*RWY 19: 6.0 kt HW 0.6 kt RCW
RWY 24: 4.3 kt HW 4.2 kt LCW
W.Rank190° ranks 1
Current wind is above 190° avg. (5.8)
Visibility9999 m
Phenomena:N/A
Clouds:N/A
Expected CloudBase > 400 ft AGL from Temp-Dew spread
CeilingNone
Temp22°C (ISA +9)
Dew Point21°C (94% RH)
QNH1023 hPa
Density Alt2,241 ft
Elevation1,161 ft
Report Wrong Elevation
Raw Report
METAR KHKY 210953Z AUTO 19006KT 10SM CLR 22/21 A3022 RMK AO2 SLP208
T02170206=

Extra information for KHKY:More info

Metar Taf Metar & Taf Last 4 Metars F.Rules Stats Wind Profile Meteogram Temp Stats Airport Information Weather charts Add Link Nearby VenuesMetar ALERT Operation Metar Decoded Social comments

AIRNAV info for KHKY